Time;durP1;ratioP1;P1;durP2;ratioP2;P2;SDS_P1;SDS_P2;PMS_P1;PMS_P2;Temp;Humidity;BMP_temperature;BMP_pressure;BME280_temperature;BME280_humidity;BME280_pressure;Samples;Min_cycle;Max_cycle;Signal;HPM_P1;HPM_P2
2022/07/22 00:01:03;;;;;;;6.15;3.10;;;;;;;18.28;68.48;102101.75;6214384;23;20294;-63
2022/07/22 00:03:28;;;;;;;6.22;2.95;;;;;;;18.29;68.82;102095.84;6214816;23;20010;-64
2022/07/22 00:05:54;;;;;;;6.07;3.20;;;;;;;18.26;69.05;102101.16;6213584;23;20107;-63
2022/07/22 00:08:19;;;;;;;8.98;3.72;;;;;;;18.23;69.04;102091.28;6214750;23;20035;-64
2022/07/22 00:10:45;;;;;;;9.20;3.58;;;;;;;18.25;69.04;102091.03;6214260;23;20020;-63
2022/07/22 00:13:10;;;;;;;10.52;3.63;;;;;;;18.22;69.00;102089.63;6213651;23;20011;-63
2022/07/22 00:15:35;;;;;;;7.20;3.38;;;;;;;18.23;68.86;102088.50;6214201;23;20146;-64
2022/07/22 00:18:01;;;;;;;7.05;3.65;;;;;;;18.19;69.12;102081.72;6214522;23;20088;-64
2022/07/22 00:20:26;;;;;;;7.88;3.72;;;;;;;18.26;69.02;102084.28;6211785;23;20005;-64
2022/07/22 00:22:51;;;;;;;7.45;4.00;;;;;;;18.28;68.88;102082.06;6214475;23;20027;-64
2022/07/22 00:25:17;;;;;;;8.60;4.00;;;;;;;18.20;69.52;102091.03;6215096;23;20302;-64
2022/07/22 00:27:42;;;;;;;10.38;4.28;;;;;;;18.24;69.26;102083.75;6213892;23;20004;-64
2022/07/22 00:30:08;;;;;;;9.52;4.55;;;;;;;18.24;69.21;102090.19;6212583;23;20015;-63
2022/07/22 00:32:33;;;;;;;10.82;4.88;;;;;;;18.19;69.88;102084.53;6214068;23;20016;-63
2022/07/22 00:34:59;;;;;;;7.22;4.40;;;;;;;18.23;69.52;102090.47;6212523;23;20421;-64
2022/07/22 00:37:24;;;;;;;9.35;4.55;;;;;;;18.22;69.53;102088.78;6213814;23;20075;-63
2022/07/22 00:39:49;;;;;;;9.32;4.65;;;;;;;18.22;69.23;102086.81;6212862;23;20465;-63
2022/07/22 00:42:15;;;;;;;11.45;4.85;;;;;;;18.21;69.56;102082.31;6212605;23;20009;-63
2022/07/22 00:44:40;;;;;;;9.05;5.13;;;;;;;18.22;69.48;102085.97;6214600;23;20004;-64
2022/07/22 00:47:06;;;;;;;13.43;5.13;;;;;;;18.19;69.46;102084.53;6213853;23;20425;-64
2022/07/22 00:49:32;;;;;;;10.25;5.10;;;;;;;18.18;69.23;102082.84;6213138;23;20413;-64
2022/07/22 00:51:57;;;;;;;12.60;5.07;;;;;;;18.15;69.76;102078.63;6215112;23;20050;-64
2022/07/22 00:54:23;;;;;;;12.30;4.68;;;;;;;18.13;69.88;102071.59;6213374;23;20012;-64
2022/07/22 00:56:48;;;;;;;12.88;5.55;;;;;;;18.18;69.56;102073.59;6214989;23;20023;-64
2022/07/22 00:59:14;;;;;;;12.82;5.22;;;;;;;18.13;69.65;102071.59;6213587;23;20005;-64
2022/07/22 01:01:40;;;;;;;13.13;5.55;;;;;;;18.17;69.85;102069.94;6214177;23;20015;-64
2022/07/22 01:04:05;;;;;;;14.77;5.38;;;;;;;18.17;69.70;102067.13;6215952;23;20024;-64
2022/07/22 01:06:31;;;;;;;12.23;4.95;;;;;;;18.19;69.58;102069.66;6216417;23;20059;-64
2022/07/22 01:08:56;;;;;;;14.02;4.63;;;;;;;18.15;69.81;102067.38;6214552;23;20000;-64
2022/07/22 01:11:22;;;;;;;14.43;4.70;;;;;;;18.12;69.87;102065.13;6212681;23;20005;-64
2022/07/22 01:13:50;;;;;;;10.32;4.88;;;;;;;18.07;69.94;102067.06;6217245;23;20417;-64
2022/07/22 01:16:17;;;;;;;14.93;5.47;;;;;;;18.03;69.69;102063.97;6215123;23;20008;-64
2022/07/22 01:18:43;;;;;;;9.40;4.65;;;;;;;18.05;70.09;102060.88;6216769;23;20005;-64
2022/07/22 01:21:09;;;;;;;12.90;5.05;;;;;;;18.05;69.92;102061.72;6216691;23;20016;-64
2022/07/22 01:23:35;;;;;;;14.60;5.50;;;;;;;18.03;69.97;102058.34;6215815;23;20015;-64
2022/07/22 01:26:01;;;;;;;11.55;4.88;;;;;;;18.05;70.20;102058.09;6216305;23;20005;-64
2022/07/22 01:28:26;;;;;;;12.45;5.05;;;;;;;18.03;69.96;102051.88;6215274;23;20329;-64
2022/07/22 01:30:52;;;;;;;13.30;5.30;;;;;;;18.03;69.76;102061.16;6214581;23;20417;-64
2022/07/22 01:33:18;;;;;;;11.75;5.65;;;;;;;18.00;69.83;102055.22;6215883;23;20325;-65
2022/07/22 01:35:44;;;;;;;9.63;4.63;;;;;;;17.99;69.82;102059.16;6215923;23;20441;-64
2022/07/22 01:38:09;;;;;;;17.15;5.13;;;;;;;18.00;69.51;102058.03;6215602;23;20004;-64
2022/07/22 01:40:34;;;;;;;11.60;5.47;;;;;;;17.94;69.54;102060.00;6215430;23;20425;-64
2022/07/22 01:43:00;;;;;;;17.75;5.13;;;;;;;17.90;69.54;102059.69;6214954;23;20011;-64
2022/07/22 01:45:28;;;;;;;9.93;4.88;;;;;;;17.94;69.61;102062.81;6214907;23;20005;-64
2022/07/22 01:47:53;;;;;;;11.27;5.55;;;;;;;17.88;69.60;102053.50;6216256;23;20358;-64
2022/07/22 01:50:19;;;;;;;9.98;4.93;;;;;;;17.85;69.53;102059.66;6214494;23;20036;-64
2022/07/22 01:52:44;;;;;;;11.85;5.43;;;;;;;17.87;69.67;102063.03;6215350;23;20008;-64
2022/07/22 01:55:10;;;;;;;10.32;5.07;;;;;;;17.82;69.82;102063.00;6216363;23;20008;-64
2022/07/22 01:57:36;;;;;;;13.43;4.90;;;;;;;17.82;69.72;102067.78;6215075;23;20410;-64
2022/07/22 02:00:05;;;;;;;12.20;5.03;;;;;;;17.77;69.97;102068.63;6215926;23;20036;-64
2022/07/22 02:02:30;;;;;;;11.23;5.28;;;;;;;17.78;69.55;102064.69;6217119;23;20005;-64
2022/07/22 02:04:55;;;;;;;12.27;5.40;;;;;;;17.78;69.78;102066.66;6215800;23;20440;-64
2022/07/22 02:07:21;;;;;;;13.20;5.68;;;;;;;17.81;69.83;102050.09;6216147;23;20421;-64
2022/07/22 02:09:46;;;;;;;13.65;5.07;;;;;;;17.77;69.79;102057.38;6216181;23;20087;-63
2022/07/22 02:12:11;;;;;;;12.93;6.25;;;;;;;17.76;70.43;102055.66;6214133;23;20019;-64
2022/07/22 02:14:36;;;;;;;13.15;5.30;;;;;;;17.77;70.28;102057.38;6215463;23;20000;-65
2022/07/22 02:17:02;;;;;;;12.70;5.55;;;;;;;17.78;70.49;102053.44;6215977;23;20086;-64
2022/07/22 02:19:27;;;;;;;11.38;5.20;;;;;;;17.77;70.39;102054.56;6214441;23;20005;-64
2022/07/22 02:21:53;;;;;;;12.25;5.03;;;;;;;17.76;70.58;102046.41;6216019;23;20087;-64
2022/07/22 02:24:18;;;;;;;9.13;5.43;;;;;;;17.76;70.41;102046.41;6215746;23;20475;-64
2022/07/22 02:26:43;;;;;;;13.35;6.00;;;;;;;17.75;70.65;102054.00;6214775;23;20076;-64
2022/07/22 02:29:09;;;;;;;11.77;5.75;;;;;;;17.75;70.70;102050.34;6215797;23;20005;-64
2022/07/22 02:31:34;;;;;;;12.60;5.40;;;;;;;17.76;70.89;102060.44;6215154;23;20019;-64
2022/07/22 02:33:59;;;;;;;11.52;5.95;;;;;;;17.75;70.82;102051.19;6215002;23;20055;-64
2022/07/22 02:36:24;;;;;;;14.18;6.18;;;;;;;17.76;70.86;102055.66;6215667;23;20004;-64
2022/07/22 02:38:50;;;;;;;15.90;6.22;;;;;;;17.76;70.94;102046.41;6216813;23;20048;-64
2022/07/22 02:41:15;;;;;;;9.50;5.40;;;;;;;17.78;71.06;102049.78;6213061;23;20016;-64
2022/07/22 02:43:41;;;;;;;14.88;6.50;;;;;;;17.75;71.17;102056.78;6215120;23;20408;-65
2022/07/22 02:46:06;;;;;;;12.43;5.85;;;;;;;17.76;71.13;102050.06;6214920;23;20421;-64
2022/07/22 02:48:31;;;;;;;11.90;5.88;;;;;;;17.77;71.24;102043.34;6213041;23;20332;-64
2022/07/22 02:50:57;;;;;;;13.00;6.40;;;;;;;17.73;71.68;102042.16;6215669;23;20013;-65
2022/07/22 02:53:22;;;;;;;15.00;6.88;;;;;;;17.76;70.99;102052.88;6213160;23;20008;-65
2022/07/22 02:55:47;;;;;;;10.07;6.35;;;;;;;17.73;70.92;102041.31;6214411;23;20007;-66
2022/07/22 02:58:12;;;;;;;12.05;6.40;;;;;;;17.74;70.82;102043.84;6213855;23;20008;-64
2022/07/22 03:00:38;;;;;;;16.58;6.22;;;;;;;17.70;70.69;102041.84;6213076;23;20369;-63
2022/07/22 03:03:04;;;;;;;18.45;6.65;;;;;;;17.72;71.02;102034.84;6214183;23;20015;-64
2022/07/22 03:05:29;;;;;;;12.48;6.75;;;;;;;17.73;71.22;102033.75;6215066;23;20012;-64
2022/07/22 03:07:55;;;;;;;9.63;5.95;;;;;;;17.77;70.75;102032.09;6215417;23;20409;-64
2022/07/22 03:10:20;;;;;;;18.80;6.53;;;;;;;17.77;70.56;102025.66;6215834;23;20409;-64
2022/07/22 03:12:45;;;;;;;12.48;6.50;;;;;;;17.75;70.45;102031.53;6215332;23;20015;-64
2022/07/22 03:15:10;;;;;;;15.95;6.90;;;;;;;17.72;70.59;102034.00;6214688;23;20436;-64
2022/07/22 03:17:37;;;;;;;12.63;6.22;;;;;;;17.68;70.94;102025.25;6216175;23;20045;-64
2022/07/22 03:20:04;;;;;;;11.65;5.85;;;;;;;17.68;70.77;102025.25;6215411;23;20070;-64
2022/07/22 03:22:29;;;;;;;14.43;6.45;;;;;;;17.67;70.67;102023.59;6215344;23;20001;-64
2022/07/22 03:24:58;;;;;;;14.13;6.18;;;;;;;17.73;70.12;102024.47;6214735;23;20023;-64
2022/07/22 03:27:23;;;;;;;12.75;5.85;;;;;;;17.72;70.67;102026.41;6213962;23;20005;-65
2022/07/22 03:29:49;;;;;;;17.17;6.05;;;;;;;17.73;70.48;102030.94;6213986;23;20055;-63
2022/07/22 03:32:14;;;;;;;15.48;6.28;;;;;;;17.70;70.63;102022.22;6216449;23;20008;-64
2022/07/22 03:34:39;;;;;;;12.20;5.60;;;;;;;17.69;70.90;102026.97;6216238;23;20424;-63
2022/07/22 03:37:04;;;;;;;13.65;6.18;;;;;;;17.68;70.30;102028.06;6214359;23;20004;-63
2022/07/22 03:39:30;;;;;;;17.27;5.90;;;;;;;17.69;70.72;102024.16;6216327;23;20321;-63
2022/07/22 03:41:58;;;;;;;13.13;5.80;;;;;;;17.66;70.82;102024.72;6216211;23;20008;-64
2022/07/22 03:44:26;;;;;;;12.32;6.47;;;;;;;17.64;70.92;102029.75;6214985;23;20008;-64
2022/07/22 03:46:51;;;;;;;10.05;5.53;;;;;;;17.64;70.81;102033.41;6216067;23;20031;-64
2022/07/22 03:49:25;;;;;;;13.18;6.00;;;;;;;17.63;70.89;102036.47;6215866;23;20012;-64
2022/07/22 03:51:51;;;;;;;12.68;6.45;;;;;;;17.63;71.03;102034.50;6213844;23;20491;-63
2022/07/22 03:54:16;;;;;;;13.65;5.63;;;;;;;17.70;70.90;102036.25;6216146;23;20024;-63
2022/07/22 03:56:41;;;;;;;12.10;5.50;;;;;;;17.66;71.13;102039.59;6214757;23;20001;-63
2022/07/22 03:59:06;;;;;;;10.00;6.38;;;;;;;17.65;71.18;102039.88;6216311;23;20012;-63
2022/07/22 04:01:32;;;;;;;12.82;5.95;;;;;;;17.64;71.11;102039.03;6215757;23;20059;-63
2022/07/22 04:03:57;;;;;;;10.75;5.68;;;;;;;17.59;71.14;102033.38;6214957;23;20059;-63
2022/07/22 04:06:22;;;;;;;12.23;6.03;;;;;;;17.62;71.00;102044.06;6213584;23;20047;-63
2022/07/22 04:08:48;;;;;;;12.20;6.07;;;;;;;17.59;71.01;102038.13;6215813;23;20001;-63
2022/07/22 04:11:14;;;;;;;12.27;6.25;;;;;;;17.60;71.16;102045.44;6215263;23;20001;-63
2022/07/22 04:13:39;;;;;;;11.10;6.22;;;;;;;17.63;71.27;102044.91;6216086;23;20417;-64
2022/07/22 04:16:04;;;;;;;13.15;6.40;;;;;;;17.65;71.23;102042.69;6216125;23;20074;-64
2022/07/22 04:18:31;;;;;;;13.02;6.32;;;;;;;17.62;71.31;102051.63;6214927;23;20011;-64
2022/07/22 04:20:56;;;;;;;13.50;6.07;;;;;;;17.64;71.13;102050.25;6215553;23;20332;-64
2022/07/22 04:23:21;;;;;;;14.27;6.80;;;;;;;17.65;71.03;102048.28;6215257;23;20008;-64
2022/07/22 04:25:46;;;;;;;14.20;6.35;;;;;;;17.61;71.26;102042.38;6214681;23;20009;-64
2022/07/22 04:28:12;;;;;;;14.40;6.53;;;;;;;17.63;71.39;102042.09;6216123;23;20087;-64
2022/07/22 04:30:37;;;;;;;13.88;6.50;;;;;;;17.62;71.47;102035.63;6216206;23;20321;-64
2022/07/22 04:33:02;;;;;;;9.98;5.97;;;;;;;17.61;71.72;102049.97;6214606;23;20012;-64
2022/07/22 04:35:30;;;;;;;11.38;6.10;;;;;;;17.60;71.44;102039.81;6215476;23;19997;-64
2022/07/22 04:37:55;;;;;;;14.02;6.82;;;;;;;17.60;71.61;102037.00;6216730;23;20000;-63
2022/07/22 04:40:21;;;;;;;12.93;6.13;;;;;;;17.63;71.67;102036.47;6216642;23;20016;-63
2022/07/22 04:42:46;;;;;;;10.65;6.30;;;;;;;17.65;71.45;102034.25;6216852;23;20015;-63
2022/07/22 04:45:11;;;;;;;15.10;7.10;;;;;;;17.66;71.42;102042.41;6217566;23;20078;-64
2022/07/22 04:47:37;;;;;;;13.00;6.57;;;;;;;17.64;71.43;102047.47;6216714;23;20001;-64
2022/07/22 04:50:03;;;;;;;15.38;6.90;;;;;;;17.64;70.70;102032.53;6217408;23;20046;-64
2022/07/22 04:52:28;;;;;;;19.60;6.50;;;;;;;17.64;71.11;102035.34;6217417;23;20033;-64
2022/07/22 04:54:53;;;;;;;30.90;8.65;;;;;;;17.66;71.02;102027.53;6216809;23;20004;-63
2022/07/22 04:57:18;;;;;;;17.08;7.43;;;;;;;17.60;71.36;102026.63;6217323;23;20008;-63
2022/07/22 04:59:44;;;;;;;18.48;7.82;;;;;;;17.57;71.78;102021.59;6214272;23;20009;-64
2022/07/22 05:02:09;;;;;;;12.75;7.85;;;;;;;17.59;71.62;102029.72;6213797;23;20401;-64
2022/07/22 05:04:35;;;;;;;19.88;8.73;;;;;;;17.62;71.79;102029.19;6216231;23;20009;-64
2022/07/22 05:07:00;;;;;;;17.25;8.75;;;;;;;17.64;71.84;102032.53;6215567;23;20011;-64
2022/07/22 05:09:26;;;;;;;16.90;9.30;;;;;;;17.67;71.78;102026.38;6216220;23;20004;-64
2022/07/22 05:11:51;;;;;;;14.93;9.32;;;;;;;17.64;71.91;102026.94;6217006;23;20012;-65
2022/07/22 05:14:16;;;;;;;15.48;8.80;;;;;;;17.65;72.11;102021.06;6214739;23;20123;-64
2022/07/22 05:16:42;;;;;;;16.95;9.10;;;;;;;17.67;72.00;102027.22;6216542;23;20011;-64
2022/07/22 05:19:07;;;;;;;17.17;9.95;;;;;;;17.64;71.96;102021.31;6217490;23;20428;-64
2022/07/22 05:21:35;;;;;;;15.18;8.95;;;;;;;17.66;72.33;102021.91;6216477;23;20106;-64
2022/07/22 05:24:01;;;;;;;15.50;9.32;;;;;;;17.64;72.39;102015.69;6216243;23;20005;-63
2022/07/22 05:26:29;;;;;;;20.40;9.20;;;;;;;17.66;72.12;102021.91;6215667;23;20055;-64
2022/07/22 05:28:55;;;;;;;18.23;9.13;;;;;;;17.70;72.20;102028.66;6215126;23;20360;-63
2022/07/22 05:31:20;;;;;;;18.75;9.82;;;;;;;17.73;71.88;102024.47;6215980;23;20005;-63
2022/07/22 05:33:45;;;;;;;16.77;9.07;;;;;;;17.73;72.09;102022.50;6217138;23;20325;-64
2022/07/22 05:36:11;;;;;;;16.30;9.93;;;;;;;17.74;71.89;102015.75;6215349;23;20079;-63
2022/07/22 05:38:36;;;;;;;17.80;9.75;;;;;;;17.81;71.97;102022.00;6216748;23;20005;-64
2022/07/22 05:41:02;;;;;;;11.77;8.35;;;;;;;17.85;72.19;102028.78;6216357;23;20009;-64
2022/07/22 05:43:28;;;;;;;13.60;8.55;;;;;;;17.93;71.84;102029.38;6216150;23;20011;-64
2022/07/22 05:45:53;;;;;;;19.58;8.45;;;;;;;17.91;72.05;102026.81;6216677;23;20013;-64
2022/07/22 05:48:18;;;;;;;20.65;8.27;;;;;;;17.99;71.55;102033.88;6216359;23;20035;-64
2022/07/22 05:50:46;;;;;;;13.85;8.30;;;;;;;17.98;71.83;102033.03;6215333;23;20013;-64
2022/07/22 05:53:11;;;;;;;16.98;9.23;;;;;;;18.01;71.46;102037.28;6217221;23;20074;-64
2022/07/22 05:55:37;;;;;;;16.92;9.55;;;;;;;18.00;71.84;102033.63;6216828;23;20476;-64
2022/07/22 05:58:02;;;;;;;22.50;9.10;;;;;;;18.06;72.04;102031.66;6216476;23;20015;-64
2022/07/22 06:00:27;;;;;;;17.58;8.57;;;;;;;18.08;71.63;102032.25;6217051;23;20084;-64
2022/07/22 06:02:53;;;;;;;15.95;8.90;;;;;;;18.13;70.86;102032.25;6216542;23;20030;-65
2022/07/22 06:05:19;;;;;;;16.23;8.55;;;;;;;18.12;71.33;102033.41;6215746;23;20529;-64
2022/07/22 06:07:44;;;;;;;18.45;8.95;;;;;;;18.15;71.03;102032.81;6216191;23;20005;-64
2022/07/22 06:10:10;;;;;;;16.65;8.50;;;;;;;18.20;71.19;102041.28;6216789;23;20534;-64
2022/07/22 06:12:35;;;;;;;15.00;8.32;;;;;;;18.24;70.68;102042.44;6216084;23;20088;-64
2022/07/22 06:15:01;;;;;;;18.27;7.90;;;;;;;18.28;70.36;102034.28;6217039;23;20004;-64
2022/07/22 06:17:26;;;;;;;14.38;7.03;;;;;;;18.30;70.37;102046.09;6215652;23;20000;-64
2022/07/22 06:19:51;;;;;;;12.57;6.68;;;;;;;18.34;70.32;102034.00;6216462;23;20012;-64
2022/07/22 06:22:19;;;;;;;13.32;6.80;;;;;;;18.35;69.81;102038.53;6216215;23;20016;-64
2022/07/22 06:24:45;;;;;;;14.40;6.57;;;;;;;18.38;69.68;102037.94;6216014;23;20005;-64
2022/07/22 06:27:10;;;;;;;13.38;6.95;;;;;;;18.43;69.37;102034.34;6215708;23;20004;-64
2022/07/22 06:29:36;;;;;;;13.82;6.50;;;;;;;18.45;68.73;102032.06;6216568;23;20005;-65
2022/07/22 06:32:01;;;;;;;16.60;6.40;;;;;;;18.59;68.32;102032.41;6215322;23;20011;-64
2022/07/22 06:34:32;;;;;;;15.65;7.18;;;;;;;18.58;68.80;102030.69;6216791;23;20080;-64
2022/07/22 06:36:57;;;;;;;9.80;5.20;;;;;;;18.56;67.87;102032.94;6215482;23;20356;-64
2022/07/22 06:39:25;;;;;;;10.45;5.05;;;;;;;18.60;68.17;102036.91;6215575;23;20008;-64
2022/07/22 06:41:51;;;;;;;12.07;5.93;;;;;;;18.54;67.65;102032.38;6216351;23;20012;-64
2022/07/22 06:44:16;;;;;;;11.27;5.80;;;;;;;18.67;67.48;102034.66;6216613;23;20421;-65
2022/07/22 06:46:41;;;;;;;16.52;5.05;;;;;;;18.75;67.40;102027.66;6214147;23;20312;-64
2022/07/22 06:49:07;;;;;;;11.02;5.07;;;;;;;18.91;67.12;102025.72;6215912;23;20108;-64
2022/07/22 06:51:33;;;;;;;7.30;3.47;;;;;;;18.94;63.19;102017.53;6216415;23;20004;-64
2022/07/22 06:53:59;;;;;;;6.68;3.15;;;;;;;18.97;63.46;102035.81;6215166;23;20321;-65
2022/07/22 06:56:24;;;;;;;6.80;3.58;;;;;;;19.01;63.39;102028.50;6216603;23;20012;-64
2022/07/22 06:58:49;;;;;;;7.65;3.10;;;;;;;19.12;63.32;102036.66;6216447;23;20005;-64
2022/07/22 07:01:15;;;;;;;6.47;2.58;;;;;;;19.33;65.02;102037.47;6213878;23;20083;-65
2022/07/22 07:03:40;;;;;;;3.42;1.83;;;;;;;19.76;65.66;102023.06;6214896;23;20004;-65
2022/07/22 07:06:11;;;;;;;3.05;2.25;;;;;;;19.94;63.68;102032.88;6214609;23;20087;-65
2022/07/22 07:08:37;;;;;;;5.95;2.30;;;;;;;20.04;63.34;102027.19;6213122;23;20015;-64
2022/07/22 07:11:03;;;;;;;5.13;2.38;;;;;;;20.20;61.71;102023.19;6215100;23;20433;-64
2022/07/22 07:13:29;;;;;;;4.20;1.95;;;;;;;20.31;60.74;102018.31;6216206;23;20031;-64
2022/07/22 07:15:54;;;;;;;4.90;2.75;;;;;;;20.30;60.03;102016.63;6213393;23;20002;-64
2022/07/22 07:18:19;;;;;;;7.03;2.88;;;;;;;20.32;58.77;102018.03;6214369;23;20028;-65
2022/07/22 07:20:45;;;;;;;3.72;1.85;;;;;;;20.37;58.45;102016.31;6212712;23;20026;-64
2022/07/22 07:23:10;;;;;;;4.03;1.80;;;;;;;20.42;58.23;102013.47;6215584;23;20008;-64
2022/07/22 07:25:35;;;;;;;3.95;1.98;;;;;;;20.49;58.38;102009.22;6216226;23;20420;-65
2022/07/22 07:28:01;;;;;;;2.83;1.65;;;;;;;20.64;58.07;102008.28;6214021;23;20417;-64
2022/07/22 07:30:26;;;;;;;5.10;1.80;;;;;;;20.72;56.31;102010.47;6214609;23;20015;-64
2022/07/22 07:32:51;;;;;;;3.35;1.25;;;;;;;20.73;54.88;102006.50;6216034;23;20011;-64
2022/07/22 07:35:17;;;;;;;2.70;1.45;;;;;;;20.79;55.71;102018.63;6214046;23;20000;-64
2022/07/22 07:37:42;;;;;;;2.88;1.60;;;;;;;20.80;54.87;102021.13;6213229;23;20012;-64
2022/07/22 07:40:08;;;;;;;3.88;1.90;;;;;;;20.91;55.24;102013.44;6213799;23;20452;-64
2022/07/22 07:42:34;;;;;;;4.13;1.50;;;;;;;21.00;54.32;102008.00;6213884;23;20012;-65
2022/07/22 07:44:59;;;;;;;4.57;1.58;;;;;;;21.05;54.15;102010.75;6213512;23;20009;-66
2022/07/22 07:47:24;;;;;;;6.07;1.55;;;;;;;21.03;53.86;102007.41;6214483;23;20005;-66
2022/07/22 07:49:50;;;;;;;2.40;1.45;;;;;;;20.93;53.58;102002.66;6212816;23;20035;-68
2022/07/22 07:52:17;;;;;;;5.20;1.27;;;;;;;21.01;53.65;102009.66;6215106;23;20043;-64
2022/07/22 07:54:42;;;;;;;3.30;1.60;;;;;;;21.00;54.00;102014.47;6213926;23;20024;-62
2022/07/22 07:57:12;;;;;;;2.58;1.27;;;;;;;21.00;53.94;102008.81;6213451;23;20001;-64
2022/07/22 07:59:38;;;;;;;3.85;1.70;;;;;;;20.97;54.49;102014.22;6215303;23;20333;-64
2022/07/22 08:02:04;;;;;;;4.80;2.00;;;;;;;20.86;54.74;102012.63;6214214;23;20023;-65
2022/07/22 08:04:34;;;;;;;2.97;1.63;;;;;;;20.92;55.65;102011.44;6213170;23;20005;-63
2022/07/22 08:07:00;;;;;;;4.95;1.70;;;;;;;20.86;55.19;102013.44;6213684;23;20001;-64
2022/07/22 08:09:25;;;;;;;5.47;2.00;;;;;;;20.92;55.25;102014.28;6214615;23;20011;-64
2022/07/22 08:11:51;;;;;;;3.55;1.60;;;;;;;20.90;55.11;102006.09;6212330;23;20005;-64
2022/07/22 08:14:17;;;;;;;4.75;1.60;;;;;;;21.02;54.64;102006.53;6216795;23;20007;-64
2022/07/22 08:16:42;;;;;;;5.50;1.65;;;;;;;21.04;54.48;102003.44;6216461;23;20032;-63
2022/07/22 08:19:07;;;;;;;1.90;1.27;;;;;;;21.20;53.74;102001.31;6215084;23;20457;-64
2022/07/22 08:21:33;;;;;;;4.63;1.48;;;;;;;21.22;53.24;101999.88;6217716;23;20008;-64
2022/07/22 08:23:58;;;;;;;3.08;1.58;;;;;;;21.35;53.46;102006.84;6215395;23;20005;-64
2022/07/22 08:26:24;;;;;;;2.63;1.55;;;;;;;21.36;53.14;102004.84;6216658;23;20036;-64
2022/07/22 08:28:49;;;;;;;2.78;1.40;;;;;;;21.33;53.02;102007.13;6215700;23;20000;-66
2022/07/22 08:31:14;;;;;;;5.35;1.40;;;;;;;21.44;53.02;102005.03;6215791;23;20339;-63
2022/07/22 08:33:40;;;;;;;2.28;1.50;;;;;;;21.53;52.10;102002.41;6216133;23;20008;-66
2022/07/22 08:36:05;;;;;;;5.55;1.70;;;;;;;21.69;52.11;102008.72;6213340;23;20015;-66
2022/07/22 08:38:31;;;;;;;2.72;1.33;;;;;;;21.66;52.63;101998.88;6212235;23;20011;-66
2022/07/22 08:40:57;;;;;;;2.75;1.42;;;;;;;21.47;52.69;101995.97;6215752;23;20076;-66
2022/07/22 08:43:25;;;;;;;3.92;2.03;;;;;;;21.44;52.52;101995.72;6215812;23;20008;-67
2022/07/22 08:45:51;;;;;;;3.97;2.05;;;;;;;21.32;52.92;101994.16;6213887;23;20007;-67
2022/07/22 08:48:17;;;;;;;2.78;1.60;;;;;;;21.31;52.88;101992.44;6217081;23;20000;-68
2022/07/22 08:50:42;;;;;;;4.97;1.70;;;;;;;21.26;53.20;101992.50;6217392;23;20027;-67
2022/07/22 08:53:12;;;;;;;3.45;1.77;;;;;;;21.19;53.45;101988.34;6215798;23;20001;-68
2022/07/22 08:55:43;;;;;;;3.15;1.58;;;;;;;21.21;53.37;101997.34;6217256;23;20001;-68
2022/07/22 08:58:08;;;;;;;4.65;1.73;;;;;;;21.23;53.38;101995.91;6217302;23;20322;-67
2022/07/22 09:00:34;;;;;;;3.38;1.60;;;;;;;21.11;53.13;101987.00;6215682;23;20001;-68
2022/07/22 09:02:59;;;;;;;2.65;1.38;;;;;;;21.17;53.17;101994.28;6215204;23;20031;-67
2022/07/22 09:05:32;;;;;;;4.15;1.40;;;;;;;21.08;53.21;101991.25;6216952;23;19997;-67
2022/07/22 09:07:58;;;;;;;4.35;1.60;;;;;;;21.04;52.59;101995.81;6215686;23;20380;-67
2022/07/22 09:10:31;;;;;;;2.85;1.55;;;;;;;21.07;53.19;101997.19;6216866;23;20070;-67
2022/07/22 09:13:02;;;;;;;3.72;1.83;;;;;;;20.98;52.96;102001.78;6216258;23;20011;-67
2022/07/22 09:15:30;;;;;;;3.53;1.55;;;;;;;21.02;52.89;101998.06;6214810;23;20005;-67
2022/07/22 09:17:58;;;;;;;3.42;1.38;;;;;;;21.06;52.65;101987.03;6216471;23;20009;-67
2022/07/22 09:20:23;;;;;;;2.80;1.60;;;;;;;21.11;52.52;101989.00;6214378;23;20004;-67
2022/07/22 09:22:50;;;;;;;3.13;1.38;;;;;;;21.17;52.42;101988.63;6216666;23;20076;-67
2022/07/22 09:25:30;;;;;;;3.85;1.50;;;;;;;21.12;52.57;101990.66;6217156;23;20023;-66
2022/07/22 09:28:10;;;;;;;4.30;1.65;;;;;;;21.11;52.92;101987.00;6215513;23;20004;-67
2022/07/22 09:30:44;;;;;;;4.13;1.92;;;;;;;20.98;52.84;101984.84;6215590;23;20413;-67
2022/07/22 09:33:10;;;;;;;5.03;2.10;;;;;;;20.95;52.91;101982.63;6216722;23;20310;-67
2022/07/22 09:35:37;;;;;;;2.80;1.63;;;;;;;21.06;52.33;101978.56;6216220;23;20012;-66
2022/07/22 09:38:05;;;;;;;4.15;2.22;;;;;;;20.96;52.98;101978.69;6217100;23;20007;-67
2022/07/22 09:40:34;;;;;;;6.43;2.08;;;;;;;20.98;52.18;101976.38;6216670;23;20000;-67
2022/07/22 09:43:03;;;;;;;2.55;1.38;;;;;;;21.11;52.54;101975.72;6216292;23;20004;-66
2022/07/22 09:45:30;;;;;;;4.10;1.70;;;;;;;21.08;52.01;101968.66;6216461;23;20001;-67
2022/07/22 09:47:57;;;;;;;4.03;1.80;;;;;;;21.19;52.07;101969.41;6216981;23;20004;-66
2022/07/22 09:50:31;;;;;;;3.15;1.63;;;;;;;21.28;52.22;101964.78;6215896;23;20016;-66
2022/07/22 09:52:58;;;;;;;2.92;1.80;;;;;;;21.45;51.39;101960.69;6216616;23;20040;-66
2022/07/22 09:55:25;;;;;;;4.32;2.30;;;;;;;21.33;50.38;101961.94;6215552;23;20004;-66
2022/07/22 09:57:52;;;;;;;3.47;1.75;;;;;;;21.39;51.05;101965.56;6216853;23;20001;-66
2022/07/22 10:00:21;;;;;;;1.67;1.45;;;;;;;21.37;51.29;101961.34;6216335;23;20009;-67
2022/07/22 10:02:50;;;;;;;4.38;1.83;;;;;;;21.36;51.00;101970.97;6215871;23;20005;-67
2022/07/22 10:05:22;;;;;;;2.97;1.70;;;;;;;21.44;51.09;101967.50;6215765;23;20055;-66
2022/07/22 10:07:48;;;;;;;3.42;1.60;;;;;;;21.50;50.37;101963.47;6216373;23;20071;-70
2022/07/22 10:10:17;;;;;;;4.85;1.70;;;;;;;21.60;50.32;101970.97;6213494;23;20013;-67
2022/07/22 10:12:44;;;;;;;4.25;2.03;;;;;;;21.71;50.01;101978.19;6215641;23;20004;-67
2022/07/22 10:15:11;;;;;;;4.50;1.73;;;;;;;21.92;49.72;101978.75;6215875;23;20004;-67
2022/07/22 10:17:40;;;;;;;4.18;2.00;;;;;;;21.91;49.62;101980.75;6215010;23;20015;-67
2022/07/22 10:20:07;;;;;;;6.32;2.42;;;;;;;21.97;50.16;101973.06;6215347;23;20405;-67
2022/07/22 10:22:38;;;;;;;3.13;2.20;;;;;;;21.97;50.70;101961.75;6215403;23;20433;-67
2022/07/22 10:25:04;;;;;;;6.43;1.97;;;;;;;22.08;50.58;101968.94;6214005;23;20332;-67
2022/07/22 10:27:44;;;;;;;6.10;2.53;;;;;;;21.90;51.32;101975.41;6214455;23;20028;-67
2022/07/22 10:30:10;;;;;;;5.18;2.50;;;;;;;21.88;50.56;101977.69;6216107;23;20001;-66
2022/07/22 10:32:35;;;;;;;5.38;2.38;;;;;;;21.87;50.69;101976.00;6215797;23;20074;-66
2022/07/22 10:35:01;;;;;;;4.05;2.25;;;;;;;21.93;50.72;101971.97;6215945;23;20405;-67
2022/07/22 10:37:43;;;;;;;6.15;2.35;;;;;;;22.04;51.00;101976.34;6215873;23;20012;-66
2022/07/22 10:40:15;;;;;;;4.50;1.95;;;;;;;22.19;50.03;101984.66;6215549;23;20047;-66
2022/07/22 10:43:11;;;;;;;6.90;2.63;;;;;;;22.17;50.55;101975.63;6216479;23;20011;-67
2022/07/22 10:45:45;;;;;;;4.40;2.17;;;;;;;22.30;49.83;101974.88;6215423;23;20377;-67
2022/07/22 10:48:15;;;;;;;4.32;2.90;;;;;;;22.26;49.03;101962.50;6216449;23;20095;-67
2022/07/22 10:50:50;;;;;;;4.85;2.78;;;;;;;22.30;48.49;101965.53;6215931;23;20008;-67
2022/07/22 10:53:18;;;;;;;4.72;2.33;;;;;;;22.34;48.31;101963.78;6215621;23;20020;-66
2022/07/22 10:56:06;;;;;;;6.25;3.47;;;;;;;22.34;48.59;101962.94;6213886;23;20015;-66
2022/07/22 10:58:31;;;;;;;4.63;2.47;;;;;;;22.34;48.43;101949.66;6215359;23;20439;-67
2022/07/22 11:00:58;;;;;;;5.20;3.30;;;;;;;22.30;48.22;101957.06;6215312;23;20083;-67
2022/07/22 11:03:25;;;;;;;4.18;2.63;;;;;;;22.36;48.68;101947.38;6214077;23;20285;-68
2022/07/22 11:05:50;;;;;;;4.43;2.50;;;;;;;22.41;48.71;101940.78;6213681;23;20079;-68
2022/07/22 11:08:16;;;;;;;4.78;2.78;;;;;;;22.41;48.09;101943.63;6208316;23;20040;-68
2022/07/22 11:10:50;;;;;;;7.20;3.00;;;;;;;22.34;48.35;101940.31;6215710;23;20008;-68
2022/07/22 11:13:39;;;;;;;4.57;2.20;;;;;;;22.36;50.06;101943.66;6214398;23;20012;-69
2022/07/22 11:16:22;;;;;;;8.85;4.10;;;;;;;22.25;49.16;101949.50;6215217;23;20013;-69
2022/07/22 11:18:48;;;;;;;6.82;4.32;;;;;;;22.16;49.37;101939.16;6214990;23;20007;-68